sensor_id;sensor_type;location;lat;lon;timestamp;P1;durP1;ratioP1;P2;durP2;ratioP2
75090;SDS011;63674;48.048;8.306;2022-11-12T00:01:24;4.82;;;1.10;;
75090;SDS011;63674;48.048;8.306;2022-11-12T00:03:53;4.43;;;1.42;;
75090;SDS011;63674;48.048;8.306;2022-11-12T00:06:22;4.38;;;1.65;;
75090;SDS011;63674;48.048;8.306;2022-11-12T00:08:51;4.25;;;1.50;;
75090;SDS011;63674;48.048;8.306;2022-11-12T00:11:19;5.35;;;1.40;;
75090;SDS011;63674;48.048;8.306;2022-11-12T00:13:48;4.57;;;1.60;;
75090;SDS011;63674;48.048;8.306;2022-11-12T00:16:17;4.97;;;1.40;;
75090;SDS011;63674;48.048;8.306;2022-11-12T00:18:46;4.53;;;1.58;;
75090;SDS011;63674;48.048;8.306;2022-11-12T00:21:15;4.25;;;1.40;;
75090;SDS011;63674;48.048;8.306;2022-11-12T00:23:44;4.13;;;1.50;;
75090;SDS011;63674;48.048;8.306;2022-11-12T00:26:12;4.38;;;1.40;;
75090;SDS011;63674;48.048;8.306;2022-11-12T00:28:41;4.50;;;1.45;;
75090;SDS011;63674;48.048;8.306;2022-11-12T00:31:10;4.70;;;1.35;;
75090;SDS011;63674;48.048;8.306;2022-11-12T00:33:39;4.40;;;1.42;;
75090;SDS011;63674;48.048;8.306;2022-11-12T00:36:10;4.28;;;1.40;;
75090;SDS011;63674;48.048;8.306;2022-11-12T00:38:39;4.10;;;1.40;;
75090;SDS011;63674;48.048;8.306;2022-11-12T00:41:07;4.20;;;1.35;;
75090;SDS011;63674;48.048;8.306;2022-11-12T00:43:35;4.05;;;1.30;;
75090;SDS011;63674;48.048;8.306;2022-11-12T00:46:04;4.80;;;1.60;;
75090;SDS011;63674;48.048;8.306;2022-11-12T00:48:33;4.50;;;1.33;;
75090;SDS011;63674;48.048;8.306;2022-11-12T00:51:02;5.70;;;1.42;;
75090;SDS011;63674;48.048;8.306;2022-11-12T00:53:34;4.60;;;1.52;;
75090;SDS011;63674;48.048;8.306;2022-11-12T00:56:03;5.03;;;1.35;;
75090;SDS011;63674;48.048;8.306;2022-11-12T00:58:34;4.55;;;1.55;;
75090;SDS011;63674;48.048;8.306;2022-11-12T01:01:03;6.13;;;1.30;;
75090;SDS011;63674;48.048;8.306;2022-11-12T01:03:35;3.90;;;1.10;;
75090;SDS011;63674;48.048;8.306;2022-11-12T01:06:09;4.22;;;1.08;;
75090;SDS011;63674;48.048;8.306;2022-11-12T01:08:42;5.43;;;1.45;;
75090;SDS011;63674;48.048;8.306;2022-11-12T01:11:11;5.00;;;1.30;;
75090;SDS011;63674;48.048;8.306;2022-11-12T01:13:43;4.30;;;1.13;;
75090;SDS011;63674;48.048;8.306;2022-11-12T01:16:14;5.80;;;1.40;;
75090;SDS011;63674;48.048;8.306;2022-11-12T01:18:45;4.68;;;1.50;;
75090;SDS011;63674;48.048;8.306;2022-11-12T01:21:15;4.03;;;1.15;;
75090;SDS011;63674;48.048;8.306;2022-11-12T01:23:44;4.63;;;1.40;;
75090;SDS011;63674;48.048;8.306;2022-11-12T01:26:14;4.60;;;1.50;;
75090;SDS011;63674;48.048;8.306;2022-11-12T01:28:46;3.83;;;1.27;;
75090;SDS011;63674;48.048;8.306;2022-11-12T01:31:15;4.03;;;1.40;;
75090;SDS011;63674;48.048;8.306;2022-11-12T01:33:47;4.70;;;1.50;;
75090;SDS011;63674;48.048;8.306;2022-11-12T01:36:19;4.38;;;1.30;;
75090;SDS011;63674;48.048;8.306;2022-11-12T01:38:50;3.80;;;1.00;;
75090;SDS011;63674;48.048;8.306;2022-11-12T01:41:21;4.28;;;1.30;;
75090;SDS011;63674;48.048;8.306;2022-11-12T01:44:05;4.57;;;1.50;;
75090;SDS011;63674;48.048;8.306;2022-11-12T01:46:42;4.10;;;1.38;;
75090;SDS011;63674;48.048;8.306;2022-11-12T01:49:23;7.38;;;1.38;;
75090;SDS011;63674;48.048;8.306;2022-11-12T01:52:00;4.18;;;1.23;;
75090;SDS011;63674;48.048;8.306;2022-11-12T01:54:41;5.20;;;1.40;;
75090;SDS011;63674;48.048;8.306;2022-11-12T01:57:15;4.00;;;1.10;;
75090;SDS011;63674;48.048;8.306;2022-11-12T01:59:49;4.22;;;1.10;;
75090;SDS011;63674;48.048;8.306;2022-11-12T02:02:22;5.05;;;1.00;;
75090;SDS011;63674;48.048;8.306;2022-11-12T02:04:51;4.10;;;1.10;;
75090;SDS011;63674;48.048;8.306;2022-11-12T02:07:22;4.90;;;1.00;;
75090;SDS011;63674;48.048;8.306;2022-11-12T02:09:53;4.20;;;1.10;;
75090;SDS011;63674;48.048;8.306;2022-11-12T02:12:22;6.80;;;1.08;;
75090;SDS011;63674;48.048;8.306;2022-11-12T02:15:08;3.90;;;1.25;;
75090;SDS011;63674;48.048;8.306;2022-11-12T02:17:37;5.05;;;1.00;;
75090;SDS011;63674;48.048;8.306;2022-11-12T02:20:07;6.32;;;1.20;;
75090;SDS011;63674;48.048;8.306;2022-11-12T02:22:39;4.97;;;1.33;;
75090;SDS011;63674;48.048;8.306;2022-11-12T02:25:08;5.50;;;1.27;;
75090;SDS011;63674;48.048;8.306;2022-11-12T02:27:42;4.68;;;1.33;;
75090;SDS011;63674;48.048;8.306;2022-11-12T02:30:17;4.38;;;1.30;;
75090;SDS011;63674;48.048;8.306;2022-11-12T02:32:46;4.18;;;0.98;;
75090;SDS011;63674;48.048;8.306;2022-11-12T02:35:14;3.92;;;1.02;;
75090;SDS011;63674;48.048;8.306;2022-11-12T02:37:44;4.45;;;1.10;;
75090;SDS011;63674;48.048;8.306;2022-11-12T02:40:13;5.00;;;1.05;;
75090;SDS011;63674;48.048;8.306;2022-11-12T02:42:41;4.00;;;1.00;;
75090;SDS011;63674;48.048;8.306;2022-11-12T02:45:10;8.27;;;1.10;;
75090;SDS011;63674;48.048;8.306;2022-11-12T02:47:38;4.10;;;1.35;;
75090;SDS011;63674;48.048;8.306;2022-11-12T02:50:08;3.75;;;0.98;;
75090;SDS011;63674;48.048;8.306;2022-11-12T02:52:37;3.80;;;1.08;;
75090;SDS011;63674;48.048;8.306;2022-11-12T02:55:09;4.00;;;1.27;;
75090;SDS011;63674;48.048;8.306;2022-11-12T02:57:39;4.22;;;1.10;;
75090;SDS011;63674;48.048;8.306;2022-11-12T03:00:09;3.70;;;1.15;;
75090;SDS011;63674;48.048;8.306;2022-11-12T03:02:40;3.88;;;0.93;;
75090;SDS011;63674;48.048;8.306;2022-11-12T03:05:09;4.10;;;1.50;;
75090;SDS011;63674;48.048;8.306;2022-11-12T03:07:38;5.20;;;1.10;;
75090;SDS011;63674;48.048;8.306;2022-11-12T03:10:08;4.07;;;1.17;;
75090;SDS011;63674;48.048;8.306;2022-11-12T03:12:37;4.15;;;1.23;;
75090;SDS011;63674;48.048;8.306;2022-11-12T03:15:05;4.30;;;0.90;;
75090;SDS011;63674;48.048;8.306;2022-11-12T03:17:35;4.10;;;1.20;;
75090;SDS011;63674;48.048;8.306;2022-11-12T03:20:04;3.88;;;1.02;;
75090;SDS011;63674;48.048;8.306;2022-11-12T03:22:33;4.07;;;1.23;;
75090;SDS011;63674;48.048;8.306;2022-11-12T03:25:01;3.58;;;1.10;;
75090;SDS011;63674;48.048;8.306;2022-11-12T03:27:32;3.50;;;1.00;;
75090;SDS011;63674;48.048;8.306;2022-11-12T03:30:01;5.03;;;0.93;;
75090;SDS011;63674;48.048;8.306;2022-11-12T03:32:30;4.28;;;0.88;;
75090;SDS011;63674;48.048;8.306;2022-11-12T03:34:59;3.80;;;1.02;;
75090;SDS011;63674;48.048;8.306;2022-11-12T03:37:27;3.65;;;0.93;;
75090;SDS011;63674;48.048;8.306;2022-11-12T03:39:56;4.97;;;0.90;;
75090;SDS011;63674;48.048;8.306;2022-11-12T03:42:24;5.50;;;1.20;;
75090;SDS011;63674;48.048;8.306;2022-11-12T03:44:54;6.93;;;1.17;;
75090;SDS011;63674;48.048;8.306;2022-11-12T03:47:23;4.50;;;1.23;;
75090;SDS011;63674;48.048;8.306;2022-11-12T03:49:51;3.78;;;1.10;;
75090;SDS011;63674;48.048;8.306;2022-11-12T03:52:20;4.88;;;1.13;;
75090;SDS011;63674;48.048;8.306;2022-11-12T03:54:48;4.43;;;1.08;;
75090;SDS011;63674;48.048;8.306;2022-11-12T03:57:17;3.83;;;1.13;;
75090;SDS011;63674;48.048;8.306;2022-11-12T03:59:45;4.05;;;1.05;;
75090;SDS011;63674;48.048;8.306;2022-11-12T04:02:15;5.05;;;1.30;;
75090;SDS011;63674;48.048;8.306;2022-11-12T04:04:44;4.47;;;1.30;;
75090;SDS011;63674;48.048;8.306;2022-11-12T04:07:30;3.78;;;1.30;;
75090;SDS011;63674;48.048;8.306;2022-11-12T04:10:16;5.32;;;1.40;;
75090;SDS011;63674;48.048;8.306;2022-11-12T04:12:44;3.80;;;1.10;;
75090;SDS011;63674;48.048;8.306;2022-11-12T04:15:31;4.43;;;1.05;;
75090;SDS011;63674;48.048;8.306;2022-11-12T04:18:01;3.90;;;1.15;;
75090;SDS011;63674;48.048;8.306;2022-11-12T04:20:48;4.38;;;1.08;;
75090;SDS011;63674;48.048;8.306;2022-11-12T04:23:34;4.18;;;1.13;;
75090;SDS011;63674;48.048;8.306;2022-11-12T04:26:02;4.20;;;1.08;;
75090;SDS011;63674;48.048;8.306;2022-11-12T04:28:48;4.15;;;1.02;;
75090;SDS011;63674;48.048;8.306;2022-11-12T04:31:34;3.78;;;1.02;;
75090;SDS011;63674;48.048;8.306;2022-11-12T04:34:04;3.83;;;1.10;;
75090;SDS011;63674;48.048;8.306;2022-11-12T04:36:47;3.78;;;1.00;;
75090;SDS011;63674;48.048;8.306;2022-11-12T04:39:15;4.70;;;1.17;;
75090;SDS011;63674;48.048;8.306;2022-11-12T04:41:44;4.00;;;1.10;;
75090;SDS011;63674;48.048;8.306;2022-11-12T04:44:30;4.50;;;1.00;;
75090;SDS011;63674;48.048;8.306;2022-11-12T04:47:16;4.18;;;0.90;;
75090;SDS011;63674;48.048;8.306;2022-11-12T04:49:46;4.35;;;0.90;;
75090;SDS011;63674;48.048;8.306;2022-11-12T04:52:14;3.53;;;0.90;;
75090;SDS011;63674;48.048;8.306;2022-11-12T04:54:43;3.75;;;0.90;;
75090;SDS011;63674;48.048;8.306;2022-11-12T04:57:11;3.22;;;0.73;;
75090;SDS011;63674;48.048;8.306;2022-11-12T04:59:40;5.30;;;1.20;;
75090;SDS011;63674;48.048;8.306;2022-11-12T05:02:09;3.47;;;0.80;;
75090;SDS011;63674;48.048;8.306;2022-11-12T05:04:37;3.80;;;0.80;;
75090;SDS011;63674;48.048;8.306;2022-11-12T05:07:07;3.90;;;0.90;;
75090;SDS011;63674;48.048;8.306;2022-11-12T05:09:37;6.60;;;1.00;;
75090;SDS011;63674;48.048;8.306;2022-11-12T05:12:06;6.22;;;1.02;;
75090;SDS011;63674;48.048;8.306;2022-11-12T05:14:34;4.15;;;1.00;;
75090;SDS011;63674;48.048;8.306;2022-11-12T05:17:03;4.38;;;0.90;;
75090;SDS011;63674;48.048;8.306;2022-11-12T05:19:32;3.88;;;0.85;;
75090;SDS011;63674;48.048;8.306;2022-11-12T05:22:01;5.15;;;1.10;;
75090;SDS011;63674;48.048;8.306;2022-11-12T05:24:34;4.00;;;1.05;;
75090;SDS011;63674;48.048;8.306;2022-11-12T05:27:08;5.13;;;0.90;;
75090;SDS011;63674;48.048;8.306;2022-11-12T05:29:39;3.28;;;0.80;;
75090;SDS011;63674;48.048;8.306;2022-11-12T05:32:09;5.07;;;1.00;;
75090;SDS011;63674;48.048;8.306;2022-11-12T05:34:41;7.22;;;1.05;;
75090;SDS011;63674;48.048;8.306;2022-11-12T05:37:10;4.65;;;0.80;;
75090;SDS011;63674;48.048;8.306;2022-11-12T05:39:42;4.95;;;1.13;;
75090;SDS011;63674;48.048;8.306;2022-11-12T05:42:10;3.70;;;0.95;;
75090;SDS011;63674;48.048;8.306;2022-11-12T05:44:39;4.50;;;1.15;;
75090;SDS011;63674;48.048;8.306;2022-11-12T05:47:08;3.38;;;0.85;;
75090;SDS011;63674;48.048;8.306;2022-11-12T05:49:36;5.57;;;1.02;;
75090;SDS011;63674;48.048;8.306;2022-11-12T05:52:05;5.05;;;0.82;;
75090;SDS011;63674;48.048;8.306;2022-11-12T05:54:33;4.03;;;1.10;;
75090;SDS011;63674;48.048;8.306;2022-11-12T05:57:03;5.07;;;1.02;;
75090;SDS011;63674;48.048;8.306;2022-11-12T05:59:32;5.07;;;1.00;;
75090;SDS011;63674;48.048;8.306;2022-11-12T06:02:01;4.90;;;1.20;;
75090;SDS011;63674;48.048;8.306;2022-11-12T06:04:29;4.40;;;1.20;;
75090;SDS011;63674;48.048;8.306;2022-11-12T06:06:58;3.90;;;1.25;;
75090;SDS011;63674;48.048;8.306;2022-11-12T06:09:29;4.00;;;1.00;;
75090;SDS011;63674;48.048;8.306;2022-11-12T06:11:58;3.45;;;0.85;;
75090;SDS011;63674;48.048;8.306;2022-11-12T06:14:29;3.60;;;0.90;;
75090;SDS011;63674;48.048;8.306;2022-11-12T06:16:57;4.13;;;1.10;;
75090;SDS011;63674;48.048;8.306;2022-11-12T06:19:26;5.85;;;0.85;;
75090;SDS011;63674;48.048;8.306;2022-11-12T06:21:54;3.60;;;1.00;;
75090;SDS011;63674;48.048;8.306;2022-11-12T06:24:23;4.18;;;0.95;;
75090;SDS011;63674;48.048;8.306;2022-11-12T06:26:59;5.20;;;0.85;;
75090;SDS011;63674;48.048;8.306;2022-11-12T06:29:29;3.38;;;0.88;;
75090;SDS011;63674;48.048;8.306;2022-11-12T06:31:57;3.50;;;0.90;;
75090;SDS011;63674;48.048;8.306;2022-11-12T06:34:26;3.38;;;0.55;;
75090;SDS011;63674;48.048;8.306;2022-11-12T06:36:54;3.88;;;0.80;;
75090;SDS011;63674;48.048;8.306;2022-11-12T06:39:23;5.18;;;0.93;;
75090;SDS011;63674;48.048;8.306;2022-11-12T06:41:51;4.03;;;0.90;;
75090;SDS011;63674;48.048;8.306;2022-11-12T06:44:20;4.00;;;1.00;;
75090;SDS011;63674;48.048;8.306;2022-11-12T06:46:50;3.58;;;0.70;;
75090;SDS011;63674;48.048;8.306;2022-11-12T06:49:18;3.38;;;0.70;;
75090;SDS011;63674;48.048;8.306;2022-11-12T06:51:48;4.32;;;1.38;;
75090;SDS011;63674;48.048;8.306;2022-11-12T06:54:17;4.40;;;0.90;;
75090;SDS011;63674;48.048;8.306;2022-11-12T06:56:46;3.72;;;0.95;;
75090;SDS011;63674;48.048;8.306;2022-11-12T06:59:15;4.60;;;1.20;;
75090;SDS011;63674;48.048;8.306;2022-11-12T07:01:44;3.75;;;1.00;;
75090;SDS011;63674;48.048;8.306;2022-11-12T07:04:14;4.55;;;1.30;;
75090;SDS011;63674;48.048;8.306;2022-11-12T07:06:43;4.05;;;1.13;;
75090;SDS011;63674;48.048;8.306;2022-11-12T07:09:11;4.05;;;0.80;;
75090;SDS011;63674;48.048;8.306;2022-11-12T07:11:40;4.63;;;1.17;;
75090;SDS011;63674;48.048;8.306;2022-11-12T07:14:09;5.90;;;0.80;;
75090;SDS011;63674;48.048;8.306;2022-11-12T07:16:38;3.72;;;0.80;;
75090;SDS011;63674;48.048;8.306;2022-11-12T07:19:07;3.78;;;0.98;;
75090;SDS011;63674;48.048;8.306;2022-11-12T07:21:37;3.50;;;0.80;;
75090;SDS011;63674;48.048;8.306;2022-11-12T07:24:06;3.00;;;0.60;;
75090;SDS011;63674;48.048;8.306;2022-11-12T07:26:36;3.90;;;0.90;;
75090;SDS011;63674;48.048;8.306;2022-11-12T07:29:11;3.92;;;1.00;;
75090;SDS011;63674;48.048;8.306;2022-11-12T07:32:00;3.50;;;0.70;;
75090;SDS011;63674;48.048;8.306;2022-11-12T07:34:29;5.38;;;0.98;;
75090;SDS011;63674;48.048;8.306;2022-11-12T07:36:59;4.60;;;0.82;;
75090;SDS011;63674;48.048;8.306;2022-11-12T07:39:27;4.78;;;0.88;;
75090;SDS011;63674;48.048;8.306;2022-11-12T07:41:56;4.05;;;1.30;;
75090;SDS011;63674;48.048;8.306;2022-11-12T07:44:25;3.60;;;0.90;;
75090;SDS011;63674;48.048;8.306;2022-11-12T07:46:53;4.97;;;1.00;;
75090;SDS011;63674;48.048;8.306;2022-11-12T07:49:22;4.72;;;1.20;;
75090;SDS011;63674;48.048;8.306;2022-11-12T07:51:50;3.70;;;1.10;;
75090;SDS011;63674;48.048;8.306;2022-11-12T07:54:20;5.80;;;1.33;;
75090;SDS011;63674;48.048;8.306;2022-11-12T08:01:31;4.55;;;2.17;;
75090;SDS011;63674;48.048;8.306;2022-11-12T08:04:02;5.18;;;1.50;;
75090;SDS011;63674;48.048;8.306;2022-11-12T08:06:34;4.50;;;1.58;;
75090;SDS011;63674;48.048;8.306;2022-11-12T08:09:05;5.07;;;1.80;;
75090;SDS011;63674;48.048;8.306;2022-11-12T08:11:35;6.63;;;1.45;;
75090;SDS011;63674;48.048;8.306;2022-11-12T08:17:45;4.57;;;1.77;;
75090;SDS011;63674;48.048;8.306;2022-11-12T08:20:13;4.72;;;1.77;;
75090;SDS011;63674;48.048;8.306;2022-11-12T08:22:42;4.75;;;1.90;;
75090;SDS011;63674;48.048;8.306;2022-11-12T08:25:14;4.47;;;1.60;;
75090;SDS011;63674;48.048;8.306;2022-11-12T08:27:44;4.57;;;1.70;;
75090;SDS011;63674;48.048;8.306;2022-11-12T08:30:13;5.25;;;1.30;;
75090;SDS011;63674;48.048;8.306;2022-11-12T08:32:41;5.30;;;1.73;;
75090;SDS011;63674;48.048;8.306;2022-11-12T08:35:11;4.35;;;1.30;;
75090;SDS011;63674;48.048;8.306;2022-11-12T08:37:40;4.30;;;1.52;;
75090;SDS011;63674;48.048;8.306;2022-11-12T08:40:09;4.25;;;1.63;;
75090;SDS011;63674;48.048;8.306;2022-11-12T08:42:39;6.65;;;1.13;;
75090;SDS011;63674;48.048;8.306;2022-11-12T08:45:08;5.22;;;1.77;;
75090;SDS011;63674;48.048;8.306;2022-11-12T08:47:37;4.43;;;1.48;;
75090;SDS011;63674;48.048;8.306;2022-11-12T08:50:06;4.05;;;1.17;;
75090;SDS011;63674;48.048;8.306;2022-11-12T08:52:37;4.05;;;1.23;;
75090;SDS011;63674;48.048;8.306;2022-11-12T08:55:06;3.53;;;0.95;;
75090;SDS011;63674;48.048;8.306;2022-11-12T08:57:38;4.28;;;1.27;;
75090;SDS011;63674;48.048;8.306;2022-11-12T09:00:08;5.82;;;1.20;;
75090;SDS011;63674;48.048;8.306;2022-11-12T09:02:39;4.75;;;1.10;;
75090;SDS011;63674;48.048;8.306;2022-11-12T09:05:08;4.95;;;1.27;;
75090;SDS011;63674;48.048;8.306;2022-11-12T09:07:38;4.05;;;1.48;;
75090;SDS011;63674;48.048;8.306;2022-11-12T09:10:16;6.00;;;1.50;;
75090;SDS011;63674;48.048;8.306;2022-11-12T09:12:49;4.80;;;1.90;;
75090;SDS011;63674;48.048;8.306;2022-11-12T09:15:19;6.00;;;2.10;;
75090;SDS011;63674;48.048;8.306;2022-11-12T09:18:04;4.57;;;1.50;;
75090;SDS011;63674;48.048;8.306;2022-11-12T09:20:34;4.90;;;1.60;;
75090;SDS011;63674;48.048;8.306;2022-11-12T09:23:04;8.15;;;3.00;;
75090;SDS011;63674;48.048;8.306;2022-11-12T09:25:35;7.82;;;3.30;;
75090;SDS011;63674;48.048;8.306;2022-11-12T09:28:05;4.97;;;2.17;;
75090;SDS011;63674;48.048;8.306;2022-11-12T09:30:35;6.20;;;2.55;;
75090;SDS011;63674;48.048;8.306;2022-11-12T09:33:05;6.60;;;3.10;;
75090;SDS011;63674;48.048;8.306;2022-11-12T09:35:33;5.93;;;2.65;;
75090;SDS011;63674;48.048;8.306;2022-11-12T09:38:02;7.65;;;3.80;;
75090;SDS011;63674;48.048;8.306;2022-11-12T09:40:37;16.23;;;6.47;;
75090;SDS011;63674;48.048;8.306;2022-11-12T09:43:17;14.95;;;8.93;;
75090;SDS011;63674;48.048;8.306;2022-11-12T09:45:50;21.77;;;11.07;;
75090;SDS011;63674;48.048;8.306;2022-11-12T09:48:43;18.23;;;9.18;;
75090;SDS011;63674;48.048;8.306;2022-11-12T09:51:19;15.95;;;9.32;;
75090;SDS011;63674;48.048;8.306;2022-11-12T09:53:55;21.48;;;11.30;;
75090;SDS011;63674;48.048;8.306;2022-11-12T09:56:26;14.57;;;8.10;;
75090;SDS011;63674;48.048;8.306;2022-11-12T09:58:55;11.00;;;5.80;;
75090;SDS011;63674;48.048;8.306;2022-11-12T10:01:29;12.90;;;6.40;;
75090;SDS011;63674;48.048;8.306;2022-11-12T10:04:18;14.65;;;7.70;;
75090;SDS011;63674;48.048;8.306;2022-11-12T10:07:08;10.70;;;5.32;;
75090;SDS011;63674;48.048;8.306;2022-11-12T10:09:51;8.00;;;4.40;;
75090;SDS011;63674;48.048;8.306;2022-11-12T10:12:31;11.52;;;4.30;;
75090;SDS011;63674;48.048;8.306;2022-11-12T10:15:27;11.57;;;5.90;;
75090;SDS011;63674;48.048;8.306;2022-11-12T10:18:32;13.43;;;6.95;;
75090;SDS011;63674;48.048;8.306;2022-11-12T10:21:20;13.32;;;6.65;;
75090;SDS011;63674;48.048;8.306;2022-11-12T10:23:57;11.13;;;6.38;;
75090;SDS011;63674;48.048;8.306;2022-11-12T10:26:29;11.07;;;4.90;;
75090;SDS011;63674;48.048;8.306;2022-11-12T10:29:00;13.93;;;6.75;;
75090;SDS011;63674;48.048;8.306;2022-11-12T10:31:40;13.23;;;7.15;;
75090;SDS011;63674;48.048;8.306;2022-11-12T10:34:16;10.55;;;5.82;;
75090;SDS011;63674;48.048;8.306;2022-11-12T10:36:47;12.07;;;6.65;;
75090;SDS011;63674;48.048;8.306;2022-11-12T10:39:34;9.90;;;5.18;;
75090;SDS011;63674;48.048;8.306;2022-11-12T10:42:07;9.93;;;5.80;;
75090;SDS011;63674;48.048;8.306;2022-11-12T10:44:39;9.88;;;4.40;;
75090;SDS011;63674;48.048;8.306;2022-11-12T10:47:15;9.00;;;5.00;;
75090;SDS011;63674;48.048;8.306;2022-11-12T10:49:58;7.95;;;4.18;;
75090;SDS011;63674;48.048;8.306;2022-11-12T10:52:51;9.50;;;4.13;;
75090;SDS011;63674;48.048;8.306;2022-11-12T10:55:26;9.88;;;4.53;;
75090;SDS011;63674;48.048;8.306;2022-11-12T10:58:05;7.88;;;4.38;;
75090;SDS011;63674;48.048;8.306;2022-11-12T11:00:52;9.13;;;4.30;;
75090;SDS011;63674;48.048;8.306;2022-11-12T11:03:26;11.23;;;6.20;;
75090;SDS011;63674;48.048;8.306;2022-11-12T11:05:59;11.68;;;6.40;;
75090;SDS011;63674;48.048;8.306;2022-11-12T11:08:36;16.10;;;7.60;;
75090;SDS011;63674;48.048;8.306;2022-11-12T11:11:19;11.65;;;6.30;;
75090;SDS011;63674;48.048;8.306;2022-11-12T11:13:53;11.57;;;6.50;;
75090;SDS011;63674;48.048;8.306;2022-11-12T11:16:24;12.50;;;6.60;;
75090;SDS011;63674;48.048;8.306;2022-11-12T11:18:54;9.73;;;5.70;;
75090;SDS011;63674;48.048;8.306;2022-11-12T11:21:30;9.43;;;6.00;;
75090;SDS011;63674;48.048;8.306;2022-11-12T11:24:33;7.22;;;3.28;;
75090;SDS011;63674;48.048;8.306;2022-11-12T11:27:10;7.40;;;3.60;;
75090;SDS011;63674;48.048;8.306;2022-11-12T11:29:57;8.70;;;4.10;;
75090;SDS011;63674;48.048;8.306;2022-11-12T11:32:40;7.82;;;3.72;;
75090;SDS011;63674;48.048;8.306;2022-11-12T11:35:30;7.90;;;3.90;;
75090;SDS011;63674;48.048;8.306;2022-11-12T11:38:20;8.80;;;4.05;;
75090;SDS011;63674;48.048;8.306;2022-11-12T11:41:15;9.07;;;3.75;;
75090;SDS011;63674;48.048;8.306;2022-11-12T11:44:03;7.77;;;3.43;;
75090;SDS011;63674;48.048;8.306;2022-11-12T11:46:46;13.93;;;4.63;;
75090;SDS011;63674;48.048;8.306;2022-11-12T11:49:40;8.63;;;4.40;;
75090;SDS011;63674;48.048;8.306;2022-11-12T11:52:48;12.43;;;7.13;;
75090;SDS011;63674;48.048;8.306;2022-11-12T11:55:37;15.38;;;7.40;;
75090;SDS011;63674;48.048;8.306;2022-11-12T11:58:30;8.70;;;3.87;;
75090;SDS011;63674;48.048;8.306;2022-11-12T12:01:35;9.60;;;5.30;;
75090;SDS011;63674;48.048;8.306;2022-11-12T12:04:23;10.60;;;4.60;;
75090;SDS011;63674;48.048;8.306;2022-11-12T12:07:09;10.07;;;4.65;;
75090;SDS011;63674;48.048;8.306;2022-11-12T12:09:54;8.10;;;4.25;;
75090;SDS011;63674;48.048;8.306;2022-11-12T12:12:44;7.27;;;3.73;;
75090;SDS011;63674;48.048;8.306;2022-11-12T12:15:27;7.05;;;3.40;;
75090;SDS011;63674;48.048;8.306;2022-11-12T12:18:16;7.95;;;4.15;;
75090;SDS011;63674;48.048;8.306;2022-11-12T12:20:57;6.05;;;3.20;;
75090;SDS011;63674;48.048;8.306;2022-11-12T12:23:34;7.25;;;3.70;;
75090;SDS011;63674;48.048;8.306;2022-11-12T12:26:10;10.37;;;3.47;;
75090;SDS011;63674;48.048;8.306;2022-11-12T12:28:44;7.28;;;3.60;;
75090;SDS011;63674;48.048;8.306;2022-11-12T12:31:19;7.50;;;3.88;;
75090;SDS011;63674;48.048;8.306;2022-11-12T12:33:56;7.93;;;3.60;;
75090;SDS011;63674;48.048;8.306;2022-11-12T12:36:30;8.50;;;3.83;;
75090;SDS011;63674;48.048;8.306;2022-11-12T12:39:07;13.60;;;4.70;;
75090;SDS011;63674;48.048;8.306;2022-11-12T12:41:43;11.82;;;5.50;;
75090;SDS011;63674;48.048;8.306;2022-11-12T12:44:18;8.35;;;3.80;;
75090;SDS011;63674;48.048;8.306;2022-11-12T12:46:48;14.30;;;4.78;;
75090;SDS011;63674;48.048;8.306;2022-11-12T12:49:24;6.40;;;3.45;;
75090;SDS011;63674;48.048;8.306;2022-11-12T12:51:57;6.23;;;3.00;;
75090;SDS011;63674;48.048;8.306;2022-11-12T12:57:29;7.50;;;2.83;;
75090;SDS011;63674;48.048;8.306;2022-11-12T13:02:56;5.88;;;2.60;;
75090;SDS011;63674;48.048;8.306;2022-11-12T13:05:28;6.80;;;2.70;;
75090;SDS011;63674;48.048;8.306;2022-11-12T13:07:58;6.18;;;2.50;;
75090;SDS011;63674;48.048;8.306;2022-11-12T13:10:44;7.45;;;3.28;;
75090;SDS011;63674;48.048;8.306;2022-11-12T13:13:23;4.90;;;2.17;;
75090;SDS011;63674;48.048;8.306;2022-11-12T13:15:59;5.65;;;2.30;;
75090;SDS011;63674;48.048;8.306;2022-11-12T13:21:30;6.30;;;2.20;;
75090;SDS011;63674;48.048;8.306;2022-11-12T13:23:59;5.95;;;2.65;;
75090;SDS011;63674;48.048;8.306;2022-11-12T13:26:46;5.38;;;2.60;;
75090;SDS011;63674;48.048;8.306;2022-11-12T13:32:34;6.47;;;2.80;;
75090;SDS011;63674;48.048;8.306;2022-11-12T13:35:14;6.38;;;2.90;;
75090;SDS011;63674;48.048;8.306;2022-11-12T13:37:56;5.20;;;2.35;;
75090;SDS011;63674;48.048;8.306;2022-11-12T13:43:23;4.72;;;2.10;;
75090;SDS011;63674;48.048;8.306;2022-11-12T13:46:03;4.97;;;1.97;;
75090;SDS011;63674;48.048;8.306;2022-11-12T13:48:55;12.10;;;5.85;;
75090;SDS011;63674;48.048;8.306;2022-11-12T13:51:30;18.00;;;8.35;;
75090;SDS011;63674;48.048;8.306;2022-11-12T13:54:29;5.72;;;2.60;;
75090;SDS011;63674;48.048;8.306;2022-11-12T14:00:09;7.20;;;3.30;;
75090;SDS011;63674;48.048;8.306;2022-11-12T14:02:52;5.80;;;2.22;;
75090;SDS011;63674;48.048;8.306;2022-11-12T14:05:24;5.13;;;2.08;;
75090;SDS011;63674;48.048;8.306;2022-11-12T14:11:17;6.22;;;2.60;;
75090;SDS011;63674;48.048;8.306;2022-11-12T14:14:00;9.17;;;4.20;;
75090;SDS011;63674;48.048;8.306;2022-11-12T14:16:43;8.38;;;4.30;;
75090;SDS011;63674;48.048;8.306;2022-11-12T14:19:25;9.20;;;3.63;;
75090;SDS011;63674;48.048;8.306;2022-11-12T14:22:37;7.57;;;3.20;;
75090;SDS011;63674;48.048;8.306;2022-11-12T14:25:13;8.55;;;3.20;;
75090;SDS011;63674;48.048;8.306;2022-11-12T14:27:47;6.40;;;3.47;;
75090;SDS011;63674;48.048;8.306;2022-11-12T14:30:17;6.50;;;2.70;;
75090;SDS011;63674;48.048;8.306;2022-11-12T14:32:49;6.63;;;3.50;;
75090;SDS011;63674;48.048;8.306;2022-11-12T14:38:09;6.05;;;2.85;;
75090;SDS011;63674;48.048;8.306;2022-11-12T14:40:42;8.57;;;3.50;;
75090;SDS011;63674;48.048;8.306;2022-11-12T14:43:20;12.65;;;5.07;;
75090;SDS011;63674;48.048;8.306;2022-11-12T14:45:54;13.85;;;5.97;;
75090;SDS011;63674;48.048;8.306;2022-11-12T14:48:25;16.15;;;7.55;;
75090;SDS011;63674;48.048;8.306;2022-11-12T14:50:58;11.70;;;6.38;;
75090;SDS011;63674;48.048;8.306;2022-11-12T14:53:33;14.10;;;6.50;;
75090;SDS011;63674;48.048;8.306;2022-11-12T14:56:06;8.65;;;3.88;;
75090;SDS011;63674;48.048;8.306;2022-11-12T14:58:41;7.57;;;3.20;;
75090;SDS011;63674;48.048;8.306;2022-11-12T15:01:20;9.07;;;3.92;;
75090;SDS011;63674;48.048;8.306;2022-11-12T15:04:15;10.40;;;5.18;;
75090;SDS011;63674;48.048;8.306;2022-11-12T15:06:50;9.13;;;5.10;;
75090;SDS011;63674;48.048;8.306;2022-11-12T15:09:30;9.23;;;4.53;;
75090;SDS011;63674;48.048;8.306;2022-11-12T15:12:02;9.80;;;4.28;;
75090;SDS011;63674;48.048;8.306;2022-11-12T15:14:34;12.43;;;5.53;;
75090;SDS011;63674;48.048;8.306;2022-11-12T15:17:02;10.48;;;4.70;;
75090;SDS011;63674;48.048;8.306;2022-11-12T15:19:31;14.97;;;8.57;;
75090;SDS011;63674;48.048;8.306;2022-11-12T15:22:01;14.15;;;7.10;;
75090;SDS011;63674;48.048;8.306;2022-11-12T15:24:31;11.73;;;7.10;;
75090;SDS011;63674;48.048;8.306;2022-11-12T15:27:02;12.63;;;7.22;;
75090;SDS011;63674;48.048;8.306;2022-11-12T15:30:17;11.45;;;6.22;;
75090;SDS011;63674;48.048;8.306;2022-11-12T15:32:50;15.03;;;7.17;;
75090;SDS011;63674;48.048;8.306;2022-11-12T15:35:35;13.93;;;7.10;;
75090;SDS011;63674;48.048;8.306;2022-11-12T15:38:11;10.38;;;4.90;;
75090;SDS011;63674;48.048;8.306;2022-11-12T15:40:46;12.02;;;5.15;;
75090;SDS011;63674;48.048;8.306;2022-11-12T15:43:23;13.52;;;5.07;;
75090;SDS011;63674;48.048;8.306;2022-11-12T15:45:56;13.03;;;7.53;;
75090;SDS011;63674;48.048;8.306;2022-11-12T15:48:25;11.93;;;6.05;;
75090;SDS011;63674;48.048;8.306;2022-11-12T15:50:54;12.93;;;6.55;;
75090;SDS011;63674;48.048;8.306;2022-11-12T15:53:22;11.25;;;5.13;;
75090;SDS011;63674;48.048;8.306;2022-11-12T15:55:51;8.68;;;4.53;;
75090;SDS011;63674;48.048;8.306;2022-11-12T15:58:25;11.97;;;3.60;;